Time;durP1;ratioP1;P1;durP2;ratioP2;P2;SDS_P1;SDS_P2;PMS_P1;PMS_P2;Temp;Humidity;BMP_temperature;BMP_pressure;BME280_temperature;BME280_humidity;BME280_pressure;Samples;Min_cycle;Max_cycle;Signal;HPM_P1;HPM_P2
2022/10/18 00:00:15;;;;;;;6.22;3.10;;;19.50;99.90;;;;;;931771;149;27702;-79
2022/10/18 00:02:42;;;;;;;3.75;3.45;;;19.50;99.90;;;;;;930427;152;27404;-79
2022/10/18 00:05:09;;;;;;;3.50;3.20;;;19.50;99.90;;;;;;931173;150;27393;-79
2022/10/18 00:07:35;;;;;;;3.95;3.65;;;19.60;99.90;;;;;;932383;149;27217;-79
2022/10/18 00:10:02;;;;;;;3.37;3.08;;;19.60;99.90;;;;;;929772;151;27332;-79
2022/10/18 00:12:28;;;;;;;3.47;2.87;;;19.60;99.90;;;;;;929824;152;27308;-79
2022/10/18 00:14:55;;;;;;;3.27;2.77;;;19.60;99.90;;;;;;929956;152;27282;-79
2022/10/18 00:17:21;;;;;;;4.12;3.15;;;19.60;99.90;;;;;;929552;152;27376;-79
2022/10/18 00:19:49;;;;;;;5.55;2.87;;;19.60;99.90;;;;;;932138;149;27809;-80
2022/10/18 00:22:15;;;;;;;3.00;2.80;;;19.60;99.90;;;;;;929963;150;27331;-79
2022/10/18 00:24:41;;;;;;;5.58;3.42;;;19.50;99.90;;;;;;934112;149;27351;-77
2022/10/18 00:27:08;;;;;;;3.72;3.42;;;19.50;99.90;;;;;;932062;150;27313;-78
2022/10/18 00:29:34;;;;;;;3.67;3.02;;;19.50;99.90;;;;;;931997;152;27324;-78
2022/10/18 00:32:01;;;;;;;3.72;3.42;;;19.50;99.90;;;;;;933247;152;27404;-77
2022/10/18 00:34:28;;;;;;;4.58;3.00;;;19.50;99.90;;;;;;934055;149;27387;-79
2022/10/18 00:36:54;;;;;;;4.72;3.27;;;19.50;99.90;;;;;;929721;152;27398;-78
2022/10/18 00:39:21;;;;;;;4.25;2.80;;;19.50;99.90;;;;;;930584;149;27672;-80
2022/10/18 00:41:47;;;;;;;3.50;3.08;;;19.50;99.90;;;;;;932497;152;27307;-80
2022/10/18 00:44:17;;;;;;;3.72;3.25;;;19.50;99.90;;;;;;930130;151;27732;-80
2022/10/18 00:46:43;;;;;;;5.00;3.58;;;19.50;99.90;;;;;;930028;149;27435;-80
2022/10/18 00:49:15;;;;;;;5.83;3.27;;;19.50;99.90;;;;;;931475;152;27335;-80
2022/10/18 00:51:43;;;;;;;7.50;3.20;;;19.50;99.90;;;;;;931087;151;27334;-80
2022/10/18 00:54:09;;;;;;;5.35;3.20;;;19.50;99.90;;;;;;931518;152;27356;-80
2022/10/18 00:56:35;;;;;;;3.90;3.60;;;19.50;99.90;;;;;;929266;149;27368;-80
2022/10/18 00:59:02;;;;;;;3.87;3.58;;;19.50;99.90;;;;;;931127;149;27393;-79
2022/10/18 01:01:28;;;;;;;7.05;3.25;;;19.50;99.90;;;;;;930640;149;27297;-80
2022/10/18 01:03:55;;;;;;;3.30;3.00;;;19.50;99.90;;;;;;930631;152;27409;-80
2022/10/18 01:06:22;;;;;;;8.15;3.58;;;19.50;99.90;;;;;;930710;149;27404;-80
2022/10/18 01:09:00;;;;;;;4.60;3.40;;;19.50;99.90;;;;;;932056;149;27387;-79
2022/10/18 01:11:48;;;;;;;3.85;2.87;;;19.50;99.90;;;;;;929995;152;27377;-80
2022/10/18 01:14:29;;;;;;;4.45;3.50;;;19.50;99.90;;;;;;898220;152;27338;-80
2022/10/18 01:16:59;;;;;;;3.75;3.37;;;19.50;99.90;;;;;;933090;151;27316;-80
2022/10/18 01:19:50;;;;;;;4.62;3.60;;;19.50;99.90;;;;;;931635;151;27387;-80
2022/10/18 01:22:31;;;;;;;6.35;3.55;;;19.50;99.90;;;;;;930668;151;27370;-80
2022/10/18 01:25:10;;;;;;;3.75;3.37;;;19.40;99.90;;;;;;930351;152;27713;-80
2022/10/18 01:27:57;;;;;;;3.47;2.67;;;19.40;99.90;;;;;;929577;151;27295;-80
2022/10/18 01:30:36;;;;;;;3.42;3.12;;;19.40;99.90;;;;;;930275;150;27304;-80
2022/10/18 01:33:18;;;;;;;5.20;3.33;;;19.40;99.90;;;;;;930456;150;27421;-80
2022/10/18 01:35:44;;;;;;;5.42;3.50;;;19.40;99.90;;;;;;929118;149;27467;-80
2022/10/18 01:38:11;;;;;;;7.22;3.58;;;19.40;99.90;;;;;;930728;149;27377;-80
2022/10/18 01:40:37;;;;;;;5.58;3.70;;;19.30;99.90;;;;;;929074;152;27312;-79
2022/10/18 01:43:04;;;;;;;5.65;3.27;;;19.30;99.90;;;;;;929397;152;27398;-79
2022/10/18 01:45:31;;;;;;;6.08;3.15;;;19.30;99.90;;;;;;931970;150;27304;-80
2022/10/18 01:47:57;;;;;;;5.90;3.22;;;19.30;99.90;;;;;;930725;152;27455;-80
2022/10/18 01:50:30;;;;;;;3.27;3.05;;;19.30;99.90;;;;;;930573;149;27460;-80
2022/10/18 01:52:56;;;;;;;3.42;3.12;;;19.30;99.90;;;;;;930867;152;27304;-79
2022/10/18 01:55:23;;;;;;;3.35;3.05;;;19.30;99.90;;;;;;931051;152;27305;-79
2022/10/18 01:57:55;;;;;;;5.05;3.37;;;19.30;99.90;;;;;;927609;152;27889;-79
2022/10/18 02:00:24;;;;;;;5.28;3.12;;;19.30;99.90;;;;;;930723;150;27438;-79
2022/10/18 02:02:54;;;;;;;5.55;3.92;;;19.30;99.90;;;;;;930032;149;27312;-78
2022/10/18 02:05:50;;;;;;;4.17;3.45;;;19.30;99.90;;;;;;929954;152;27370;-79
2022/10/18 02:08:29;;;;;;;4.37;3.15;;;19.30;99.90;;;;;;930437;151;27428;-79
2022/10/18 02:11:08;;;;;;;7.33;3.35;;;19.30;99.90;;;;;;930746;152;27286;-79
2022/10/18 02:13:52;;;;;;;4.97;3.40;;;19.30;99.90;;;;;;929455;152;27482;-79
2022/10/18 02:16:19;;;;;;;6.50;4.45;;;19.30;99.90;;;;;;924585;152;27371;-80
2022/10/18 02:18:45;;;;;;;3.35;3.05;;;19.30;99.90;;;;;;930178;152;27304;-79
2022/10/18 02:21:12;;;;;;;8.68;3.40;;;19.30;99.90;;;;;;931101;150;27327;-79
2022/10/18 02:23:39;;;;;;;3.47;3.17;;;19.30;99.90;;;;;;930259;149;27492;-79
2022/10/18 02:26:05;;;;;;;4.95;3.58;;;19.30;99.90;;;;;;931577;151;27464;-78
2022/10/18 02:28:32;;;;;;;3.62;3.22;;;19.30;99.90;;;;;;930053;152;27407;-79
2022/10/18 02:31:14;;;;;;;10.88;3.67;;;19.30;99.90;;;;;;931307;149;27324;-79
2022/10/18 02:33:46;;;;;;;4.67;3.25;;;19.30;99.90;;;;;;929551;151;27421;-79
2022/10/18 02:36:12;;;;;;;9.55;4.20;;;19.30;99.90;;;;;;929492;149;27347;-79
2022/10/18 02:38:39;;;;;;;7.12;3.77;;;19.30;99.90;;;;;;929944;149;27367;-79
2022/10/18 02:41:06;;;;;;;4.33;3.33;;;19.30;99.90;;;;;;933227;149;27468;-79
2022/10/18 02:43:34;;;;;;;4.35;2.98;;;19.30;99.90;;;;;;929957;152;27294;-79
2022/10/18 02:45:59;;;;;;;3.90;2.92;;;19.30;99.90;;;;;;929516;149;27328;-79
2022/10/18 02:48:25;;;;;;;5.85;3.33;;;19.30;99.90;;;;;;929637;149;27446;-79
2022/10/18 02:50:52;;;;;;;4.50;3.12;;;19.30;99.90;;;;;;930596;150;27446;-79
2022/10/18 02:53:18;;;;;;;6.22;3.27;;;19.30;99.90;;;;;;930035;152;27359;-79
2022/10/18 02:55:45;;;;;;;5.80;3.27;;;19.30;99.90;;;;;;931818;149;27311;-79
2022/10/18 02:58:13;;;;;;;4.72;3.20;;;19.30;99.90;;;;;;932374;150;27311;-79
2022/10/18 03:00:38;;;;;;;3.22;2.92;;;19.30;99.90;;;;;;930791;149;27455;-79
2022/10/18 03:03:05;;;;;;;5.75;3.25;;;19.30;99.90;;;;;;931477;150;27441;-79
2022/10/18 03:05:31;;;;;;;4.78;3.62;;;19.30;99.90;;;;;;929909;149;27456;-79
2022/10/18 03:07:58;;;;;;;4.72;3.40;;;19.30;99.90;;;;;;931780;152;27350;-79
2022/10/18 03:10:25;;;;;;;3.45;2.92;;;19.30;99.90;;;;;;931261;152;27915;-79
2022/10/18 03:12:51;;;;;;;3.35;3.05;;;19.30;99.90;;;;;;930239;151;27391;-79
2022/10/18 03:15:18;;;;;;;4.08;3.10;;;19.20;99.90;;;;;;932760;152;27308;-79
2022/10/18 03:17:44;;;;;;;7.58;3.72;;;19.20;99.90;;;;;;932175;150;27435;-79
2022/10/18 03:20:11;;;;;;;4.70;2.98;;;19.10;99.90;;;;;;933854;149;27366;-79
2022/10/18 03:22:38;;;;;;;4.55;3.27;;;19.10;99.90;;;;;;930315;149;27347;-79
2022/10/18 03:25:04;;;;;;;4.47;3.08;;;19.10;99.90;;;;;;930680;149;27776;-79
2022/10/18 03:27:31;;;;;;;3.52;3.22;;;19.00;99.90;;;;;;928082;149;27263;-79
2022/10/18 03:29:58;;;;;;;3.65;3.33;;;19.00;99.90;;;;;;930148;149;27503;-79
2022/10/18 03:32:24;;;;;;;8.25;3.22;;;19.00;99.90;;;;;;930382;150;27390;-79
2022/10/18 03:34:50;;;;;;;4.53;3.42;;;19.00;99.90;;;;;;933395;149;27285;-79
2022/10/18 03:37:17;;;;;;;5.15;3.22;;;19.00;99.90;;;;;;931466;149;27415;-79
2022/10/18 03:39:44;;;;;;;4.17;3.52;;;19.00;99.90;;;;;;930560;150;27315;-79
2022/10/18 03:42:10;;;;;;;3.35;2.87;;;19.00;99.90;;;;;;929987;150;27402;-79
2022/10/18 03:44:37;;;;;;;4.62;3.08;;;19.00;99.90;;;;;;931606;149;27354;-79
2022/10/18 03:47:03;;;;;;;3.77;2.92;;;19.00;99.90;;;;;;931344;150;27392;-79
2022/10/18 03:49:30;;;;;;;9.60;3.55;;;19.00;99.90;;;;;;930967;151;27369;-79
2022/10/18 03:51:57;;;;;;;5.87;3.90;;;19.00;99.90;;;;;;932376;149;27303;-79
2022/10/18 03:54:23;;;;;;;3.83;3.27;;;19.00;99.90;;;;;;931274;150;27309;-79
2022/10/18 03:56:50;;;;;;;4.60;3.55;;;19.00;99.90;;;;;;931790;150;27793;-79
2022/10/18 03:59:16;;;;;;;5.47;3.62;;;19.00;99.90;;;;;;931811;149;27359;-79
2022/10/18 04:01:43;;;;;;;5.40;3.90;;;19.00;99.90;;;;;;931464;151;27308;-79
2022/10/18 04:04:10;;;;;;;11.15;4.42;;;19.00;99.90;;;;;;930941;152;27299;-79
2022/10/18 04:06:36;;;;;;;3.47;3.17;;;19.00;99.90;;;;;;930989;151;27694;-79
2022/10/18 04:09:03;;;;;;;5.47;3.17;;;19.00;99.90;;;;;;928605;151;27472;-79
2022/10/18 04:11:29;;;;;;;5.50;3.33;;;19.00;99.90;;;;;;930804;152;27367;-79
2022/10/18 04:13:56;;;;;;;6.28;3.02;;;19.00;99.90;;;;;;928016;152;27344;-79
2022/10/18 04:16:23;;;;;;;4.20;3.75;;;19.00;99.90;;;;;;930441;152;27328;-79
2022/10/18 04:18:49;;;;;;;4.37;3.67;;;19.00;99.90;;;;;;930253;152;27416;-79
2022/10/18 04:21:16;;;;;;;3.72;3.05;;;19.00;99.90;;;;;;931063;150;27296;-79
2022/10/18 04:23:42;;;;;;;10.48;4.58;;;19.00;99.90;;;;;;931532;151;27354;-79
2022/10/18 04:26:09;;;;;;;7.85;3.87;;;19.00;99.90;;;;;;930051;152;27342;-79
2022/10/18 04:28:38;;;;;;;6.15;3.55;;;19.00;99.90;;;;;;930318;152;27421;-79
2022/10/18 04:31:02;;;;;;;4.50;4.10;;;19.00;99.90;;;;;;930573;150;27271;-79
2022/10/18 04:33:29;;;;;;;6.05;4.85;;;19.00;99.90;;;;;;931034;152;27291;-79
2022/10/18 04:35:55;;;;;;;5.25;4.75;;;19.00;99.90;;;;;;930892;150;27399;-79
2022/10/18 04:38:22;;;;;;;6.20;4.47;;;19.00;99.90;;;;;;934106;149;27357;-79
2022/10/18 04:40:48;;;;;;;4.70;3.87;;;19.00;99.90;;;;;;933727;149;27410;-79
2022/10/18 04:43:15;;;;;;;4.40;4.00;;;19.00;99.90;;;;;;934833;151;27301;-79
2022/10/18 04:45:42;;;;;;;5.90;3.62;;;19.00;99.90;;;;;;935421;149;27279;-79
2022/10/18 04:48:08;;;;;;;7.78;3.77;;;19.00;99.90;;;;;;936459;149;27338;-79
2022/10/18 04:50:35;;;;;;;4.47;3.90;;;19.00;99.90;;;;;;934142;151;27366;-79
2022/10/18 04:53:01;;;;;;;4.33;3.92;;;19.00;99.90;;;;;;935345;151;27497;-79
2022/10/18 04:55:28;;;;;;;4.47;3.92;;;19.00;99.90;;;;;;936072;151;27302;-79
2022/10/18 04:57:55;;;;;;;4.22;3.60;;;19.00;99.90;;;;;;936527;151;27389;-79
2022/10/18 05:00:21;;;;;;;9.48;4.58;;;19.00;99.90;;;;;;935773;150;27757;-79
2022/10/18 05:02:48;;;;;;;4.58;4.17;;;19.00;99.90;;;;;;933464;151;27439;-79
2022/10/18 05:05:14;;;;;;;6.72;4.28;;;19.00;99.90;;;;;;935078;151;27557;-79
2022/10/18 05:07:41;;;;;;;4.28;3.92;;;19.00;99.90;;;;;;935247;151;27409;-79
2022/10/18 05:10:08;;;;;;;4.58;4.17;;;19.00;99.90;;;;;;937711;148;27314;-79
2022/10/18 05:12:34;;;;;;;5.70;3.70;;;19.00;99.90;;;;;;936417;148;27356;-79
2022/10/18 05:15:01;;;;;;;7.20;3.72;;;19.00;99.90;;;;;;935813;151;27363;-79
2022/10/18 05:17:27;;;;;;;7.05;4.22;;;19.00;99.90;;;;;;936488;148;27346;-79
2022/10/18 05:19:54;;;;;;;5.72;3.65;;;19.00;99.90;;;;;;937147;148;27823;-79
2022/10/18 05:22:20;;;;;;;4.55;4.15;;;19.00;99.90;;;;;;937502;148;27403;-79
2022/10/18 05:24:47;;;;;;;4.65;4.20;;;19.00;99.90;;;;;;935934;148;27802;-80
2022/10/18 05:27:14;;;;;;;5.87;4.47;;;19.00;99.90;;;;;;936765;150;27334;-79
2022/10/18 05:29:40;;;;;;;4.40;3.85;;;19.00;99.90;;;;;;936064;151;27370;-79
2022/10/18 05:32:07;;;;;;;4.22;3.80;;;19.00;99.90;;;;;;934612;149;27326;-79
2022/10/18 05:34:33;;;;;;;5.05;4.65;;;19.00;99.90;;;;;;936226;148;27365;-79
2022/10/18 05:37:00;;;;;;;5.53;4.25;;;19.00;99.90;;;;;;941337;150;27454;-79
2022/10/18 05:39:27;;;;;;;5.33;3.90;;;19.00;99.90;;;;;;944768;147;27306;-79
2022/10/18 05:41:53;;;;;;;5.33;4.00;;;19.00;99.90;;;;;;944855;150;27343;-79
2022/10/18 05:44:20;;;;;;;3.87;3.47;;;19.00;99.90;;;;;;945262;147;27369;-79
2022/10/18 05:46:46;;;;;;;6.08;5.08;;;19.00;99.90;;;;;;943831;150;27312;-79
2022/10/18 05:49:13;;;;;;;5.92;4.12;;;19.00;99.90;;;;;;945091;147;27334;-80
2022/10/18 05:51:40;;;;;;;5.08;3.95;;;19.00;99.90;;;;;;944862;148;27323;-80
2022/10/18 05:54:06;;;;;;;4.55;3.10;;;18.90;99.90;;;;;;942596;148;27362;-80
2022/10/18 05:56:33;;;;;;;4.35;4.00;;;18.90;99.90;;;;;;944490;147;27852;-80
2022/10/18 05:58:59;;;;;;;6.97;4.28;;;18.90;99.90;;;;;;943700;147;27364;-80
2022/10/18 06:01:26;;;;;;;4.80;4.10;;;18.90;99.90;;;;;;944077;150;27810;-80
2022/10/18 06:03:53;;;;;;;4.12;3.70;;;18.80;99.90;;;;;;944680;148;27293;-80
2022/10/18 06:06:19;;;;;;;8.93;4.53;;;18.80;99.90;;;;;;944906;147;27306;-80
2022/10/18 06:08:46;;;;;;;7.37;4.10;;;18.80;99.90;;;;;;942901;147;27454;-80
2022/10/18 06:11:12;;;;;;;6.35;4.62;;;18.80;99.90;;;;;;944156;148;27353;-80
2022/10/18 06:13:41;;;;;;;5.03;3.90;;;18.70;99.90;;;;;;944338;147;27321;-80
2022/10/18 06:16:08;;;;;;;5.40;3.77;;;18.70;99.90;;;;;;942413;148;27373;-80
2022/10/18 06:18:35;;;;;;;7.60;4.70;;;18.70;99.90;;;;;;943913;147;27421;-80
2022/10/18 06:21:01;;;;;;;5.87;3.80;;;18.70;99.90;;;;;;944523;147;27372;-80
2022/10/18 06:23:28;;;;;;;7.25;4.10;;;18.70;99.90;;;;;;942269;150;27349;-80
2022/10/18 06:25:57;;;;;;;3.92;3.55;;;18.70;99.90;;;;;;942058;147;27330;-80
2022/10/18 06:28:24;;;;;;;6.20;3.90;;;18.70;99.90;;;;;;942964;150;27332;-80
2022/10/18 06:30:50;;;;;;;6.58;3.52;;;18.70;99.90;;;;;;944783;148;27460;-80
2022/10/18 06:33:17;;;;;;;9.65;3.85;;;18.70;99.90;;;;;;942339;147;27460;-80
2022/10/18 06:35:44;;;;;;;3.85;3.55;;;18.70;99.90;;;;;;943618;150;27400;-80
2022/10/18 06:38:10;;;;;;;4.08;3.70;;;18.70;99.90;;;;;;937120;149;27322;-80
2022/10/18 06:40:37;;;;;;;10.03;3.80;;;18.80;99.90;;;;;;936726;148;27413;-80
2022/10/18 06:43:06;;;;;;;5.97;3.90;;;18.80;99.90;;;;;;935075;149;27282;-80
2022/10/18 06:45:30;;;;;;;4.05;3.65;;;18.80;99.90;;;;;;933113;151;27374;-80
2022/10/18 06:47:57;;;;;;;4.30;3.72;;;18.80;99.90;;;;;;936062;151;27891;-80
2022/10/18 06:50:23;;;;;;;4.08;3.62;;;18.80;99.90;;;;;;935360;151;27387;-80
2022/10/18 06:52:50;;;;;;;5.53;3.35;;;18.90;99.90;;;;;;934801;151;27323;-80
2022/10/18 06:55:16;;;;;;;5.10;3.90;;;18.90;99.90;;;;;;934491;151;27307;-80
2022/10/18 06:57:43;;;;;;;3.85;3.55;;;19.00;99.90;;;;;;936154;148;27329;-79
2022/10/18 07:00:10;;;;;;;4.87;3.40;;;19.00;99.90;;;;;;934567;151;27359;-80
2022/10/18 07:02:40;;;;;;;5.15;3.80;;;19.00;99.90;;;;;;936766;151;27362;-80
2022/10/18 07:05:03;;;;;;;3.65;3.10;;;19.10;99.90;;;;;;932674;151;27372;-80
2022/10/18 07:07:32;;;;;;;4.28;3.87;;;19.10;99.90;;;;;;936343;149;27410;-80
2022/10/18 07:09:59;;;;;;;8.63;3.92;;;19.10;99.90;;;;;;933417;151;27330;-80
2022/10/18 07:12:25;;;;;;;5.15;3.55;;;19.20;99.90;;;;;;935564;149;27431;-80
2022/10/18 07:14:52;;;;;;;3.65;3.35;;;19.20;99.90;;;;;;936466;149;28263;-80
2022/10/18 07:17:19;;;;;;;5.05;3.67;;;19.20;99.90;;;;;;935211;151;27283;-80
2022/10/18 07:19:45;;;;;;;4.65;3.77;;;19.20;99.90;;;;;;935649;148;27467;-80
2022/10/18 07:22:12;;;;;;;5.90;3.33;;;19.30;99.90;;;;;;932535;151;27334;-80
2022/10/18 07:24:38;;;;;;;4.90;3.98;;;19.30;99.90;;;;;;936186;149;27358;-80
2022/10/18 07:27:05;;;;;;;3.60;3.30;;;19.20;99.90;;;;;;936428;143;27321;-80
2022/10/18 07:29:31;;;;;;;5.47;3.55;;;19.20;99.90;;;;;;937494;143;27264;-80
2022/10/18 07:31:58;;;;;;;5.40;3.95;;;19.30;99.90;;;;;;937597;143;27457;-80
2022/10/18 07:34:25;;;;;;;4.92;3.83;;;19.20;99.90;;;;;;937943;143;27343;-80
2022/10/18 07:36:51;;;;;;;4.03;3.72;;;19.30;99.90;;;;;;938112;148;27414;-80
2022/10/18 07:39:18;;;;;;;6.78;3.90;;;19.30;99.90;;;;;;935946;151;27476;-80
2022/10/18 07:41:44;;;;;;;4.10;3.77;;;19.30;99.90;;;;;;934551;150;27327;-80
2022/10/18 07:44:11;;;;;;;4.53;4.03;;;19.30;99.90;;;;;;934388;151;27299;-80
2022/10/18 07:46:38;;;;;;;8.93;4.60;;;19.30;99.90;;;;;;935617;149;27390;-80
2022/10/18 07:49:04;;;;;;;5.45;3.77;;;19.40;99.90;;;;;;936186;151;27365;-80
2022/10/18 07:51:31;;;;;;;4.25;3.52;;;19.40;99.90;;;;;;936462;151;27666;-80
2022/10/18 07:53:57;;;;;;;8.10;3.58;;;19.40;99.90;;;;;;935272;151;27336;-80
2022/10/18 07:56:24;;;;;;;5.33;3.75;;;19.40;99.90;;;;;;935829;150;27319;-80
2022/10/18 07:58:51;;;;;;;4.95;4.45;;;19.50;99.90;;;;;;935975;151;27294;-80
2022/10/18 08:01:17;;;;;;;4.62;4.10;;;19.60;99.90;;;;;;935539;150;27325;-80
2022/10/18 08:03:44;;;;;;;5.83;3.72;;;19.60;99.90;;;;;;933215;149;27371;-80
2022/10/18 08:06:10;;;;;;;6.65;4.42;;;19.70;99.90;;;;;;936168;150;27769;-80
2022/10/18 08:08:37;;;;;;;3.90;3.60;;;19.70;99.90;;;;;;933600;151;27275;-80
2022/10/18 08:11:06;;;;;;;4.58;4.20;;;19.80;99.90;;;;;;934929;151;27439;-80
2022/10/18 08:13:33;;;;;;;5.90;4.92;;;19.90;99.90;;;;;;932618;151;27403;-80
2022/10/18 08:15:59;;;;;;;4.72;4.20;;;19.90;99.90;;;;;;935967;151;27296;-80
2022/10/18 08:18:26;;;;;;;5.67;4.10;;;19.90;99.90;;;;;;934317;149;27344;-80
2022/10/18 08:20:52;;;;;;;5.22;4.20;;;20.00;99.90;;;;;;935900;151;27296;-80
2022/10/18 08:23:19;;;;;;;4.97;4.45;;;20.10;99.90;;;;;;935364;150;27314;-80
2022/10/18 08:25:45;;;;;;;6.28;4.10;;;20.10;99.90;;;;;;934415;149;27395;-80
2022/10/18 08:28:12;;;;;;;5.58;4.28;;;20.20;99.90;;;;;;936572;149;27356;-80
2022/10/18 08:30:39;;;;;;;3.98;3.60;;;20.40;99.90;;;;;;936605;151;27243;-80
2022/10/18 08:33:05;;;;;;;4.67;4.08;;;20.50;99.90;;;;;;936305;148;27299;-80
2022/10/18 08:35:32;;;;;;;4.62;4.10;;;20.70;99.90;;;;;;935910;149;27751;-80
2022/10/18 08:37:58;;;;;;;4.92;4.42;;;20.80;99.90;;;;;;935150;149;27348;-81
2022/10/18 08:40:26;;;;;;;4.58;4.15;;;21.00;99.90;;;;;;936139;151;27488;-80
2022/10/18 08:43:10;;;;;;;4.53;3.98;;;21.20;99.90;;;;;;937405;151;27287;-80
2022/10/18 08:45:36;;;;;;;4.35;3.95;;;21.40;99.90;;;;;;934229;149;27347;-79
2022/10/18 08:48:03;;;;;;;4.65;4.28;;;21.50;99.90;;;;;;934036;149;27341;-79
2022/10/18 08:50:29;;;;;;;4.80;4.30;;;21.70;99.90;;;;;;935917;151;27369;-79
2022/10/18 08:53:01;;;;;;;5.95;4.05;;;21.80;99.90;;;;;;933921;151;27458;-80
2022/10/18 08:55:47;;;;;;;4.65;3.65;;;22.00;99.90;;;;;;926040;151;27410;-80
2022/10/18 08:58:28;;;;;;;4.00;3.70;;;22.20;99.90;;;;;;935978;151;27367;-80
2022/10/18 09:01:14;;;;;;;3.77;3.10;;;22.50;99.90;;;;;;936636;150;27291;-80
2022/10/18 09:04:07;;;;;;;3.65;2.75;;;22.70;99.90;;;;;;933848;149;27444;-80
2022/10/18 09:06:33;;;;;;;3.77;3.10;;;23.00;99.90;;;;;;935859;151;27359;-80
2022/10/18 09:09:24;;;;;;;4.53;3.30;;;23.30;99.90;;;;;;909787;151;27406;-80
2022/10/18 09:12:28;;;;;;;2.25;2.10;;;23.50;99.90;;;;;;934335;151;27311;-80
2022/10/18 09:15:12;;;;;;;2.10;1.70;;;23.70;99.90;;;;;;934814;151;27507;-80
2022/10/18 09:17:45;;;;;;;1.70;1.47;;;23.80;99.90;;;;;;935531;150;27410;-80
2022/10/18 09:20:20;;;;;;;1.90;1.80;;;23.80;99.90;;;;;;935274;151;27870;-80
2022/10/18 09:22:58;;;;;;;2.10;1.77;;;23.80;99.90;;;;;;935105;151;27360;-80
2022/10/18 09:25:25;;;;;;;2.83;1.92;;;23.80;99.90;;;;;;933750;151;27347;-80
2022/10/18 09:27:55;;;;;;;2.02;1.72;;;23.70;99.70;;;;;;935352;149;27449;-80
2022/10/18 09:30:43;;;;;;;2.35;2.00;;;23.70;99.30;;;;;;935422;149;27824;-80
2022/10/18 09:33:18;;;;;;;3.02;2.05;;;23.70;99.30;;;;;;934786;151;27304;-80
2022/10/18 09:35:54;;;;;;;3.08;1.92;;;23.70;99.00;;;;;;936685;149;27296;-80
2022/10/18 09:38:20;;;;;;;3.67;2.40;;;23.60;98.80;;;;;;935153;148;27362;-80
2022/10/18 09:40:56;;;;;;;2.42;2.22;;;23.60;98.70;;;;;;936229;148;27399;-80
2022/10/18 09:43:22;;;;;;;4.65;2.37;;;23.50;98.90;;;;;;925806;148;27386;-80
2022/10/18 09:45:49;;;;;;;3.17;2.25;;;23.40;99.00;;;;;;935149;151;27421;-80
2022/10/18 09:48:22;;;;;;;2.40;2.20;;;23.40;99.10;;;;;;934290;149;27353;-80
2022/10/18 09:50:51;;;;;;;2.83;2.17;;;23.40;99.40;;;;;;933145;151;27340;-80
2022/10/18 09:53:34;;;;;;;2.20;2.00;;;23.40;99.50;;;;;;927947;151;27359;-80
2022/10/18 09:56:05;;;;;;;2.60;2.40;;;23.40;99.90;;;;;;935277;150;27315;-80
2022/10/18 09:58:45;;;;;;;3.10;2.08;;;23.40;99.90;;;;;;933717;151;27398;-80
2022/10/18 10:01:10;;;;;;;2.87;2.60;;;23.50;99.90;;;;;;935515;149;27389;-80
2022/10/18 10:03:37;;;;;;;2.35;2.15;;;23.50;99.60;;;;;;935440;150;27413;-80
2022/10/18 10:06:15;;;;;;;1.80;1.70;;;23.60;99.40;;;;;;934048;149;27423;-80
2022/10/18 10:08:48;;;;;;;2.42;1.87;;;23.60;98.60;;;;;;932734;151;27413;-80
2022/10/18 10:11:26;;;;;;;2.20;2.00;;;23.60;98.00;;;;;;937541;151;27313;-80
2022/10/18 10:13:53;;;;;;;4.17;2.20;;;23.60;97.60;;;;;;935450;148;27359;-80
2022/10/18 10:16:20;;;;;;;2.50;2.30;;;23.60;97.50;;;;;;934215;151;27442;-80
2022/10/18 10:18:46;;;;;;;2.20;2.10;;;23.50;97.50;;;;;;935214;148;27339;-80
2022/10/18 10:21:13;;;;;;;3.67;2.47;;;23.50;97.80;;;;;;934766;151;27381;-80
2022/10/18 10:23:39;;;;;;;2.83;2.20;;;23.50;98.10;;;;;;936094;148;27291;-80
2022/10/18 10:26:24;;;;;;;2.42;2.22;;;23.60;98.90;;;;;;929945;149;27340;-81
2022/10/18 10:28:51;;;;;;;4.33;2.00;;;23.70;99.10;;;;;;934957;149;27307;-80
2022/10/18 10:31:23;;;;;;;2.33;2.12;;;23.70;99.00;;;;;;935340;149;27408;-80
2022/10/18 10:34:12;;;;;;;2.33;2.00;;;23.90;98.80;;;;;;935608;149;27439;-80
2022/10/18 10:36:38;;;;;;;4.37;1.98;;;24.00;98.60;;;;;;936716;149;27473;-80
2022/10/18 10:39:11;;;;;;;3.22;2.10;;;24.10;98.30;;;;;;930822;149;27326;-80
2022/10/18 10:41:37;;;;;;;2.85;1.98;;;24.30;98.10;;;;;;933884;150;27338;-80
2022/10/18 10:44:04;;;;;;;2.40;1.85;;;24.40;97.50;;;;;;933768;148;27288;-80
2022/10/18 10:46:33;;;;;;;1.77;1.67;;;24.50;96.70;;;;;;935747;149;27344;-80
2022/10/18 10:49:01;;;;;;;1.50;1.35;;;24.60;96.50;;;;;;938530;148;27354;-81
2022/10/18 10:51:32;;;;;;;3.70;1.60;;;24.70;96.30;;;;;;935302;151;27265;-81
2022/10/18 10:54:10;;;;;;;1.77;1.67;;;24.80;95.90;;;;;;936742;149;27316;-81
2022/10/18 10:56:31;;;;;;;1.67;1.57;;;24.90;95.60;;;;;;935187;151;27316;-81
2022/10/18 10:59:00;;;;;;;1.70;1.60;;;24.90;95.50;;;;;;936459;149;27350;-81
2022/10/18 11:01:30;;;;;;;2.22;1.85;;;25.00;94.60;;;;;;934662;148;27325;-81
2022/10/18 11:03:56;;;;;;;2.33;2.12;;;25.10;94.20;;;;;;934864;148;27369;-81
2022/10/18 11:06:25;;;;;;;2.10;1.98;;;25.20;94.00;;;;;;935806;149;27331;-81
2022/10/18 11:08:52;;;;;;;2.17;1.95;;;25.20;93.30;;;;;;930686;148;27491;-81
2022/10/18 11:11:29;;;;;;;1.75;1.65;;;25.20;92.50;;;;;;935564;148;27277;-81
2022/10/18 11:13:57;;;;;;;3.67;2.40;;;25.20;91.70;;;;;;936693;151;27404;-81
2022/10/18 11:16:32;;;;;;;3.40;1.75;;;25.20;91.50;;;;;;934222;148;27932;-81
2022/10/18 11:18:59;;;;;;;1.60;1.50;;;25.10;91.30;;;;;;936236;151;27470;-81
2022/10/18 11:21:25;;;;;;;1.80;1.70;;;25.10;91.40;;;;;;934983;149;27333;-81
2022/10/18 11:23:52;;;;;;;1.90;1.50;;;25.00;91.40;;;;;;935232;148;27347;-81
2022/10/18 11:26:33;;;;;;;2.22;1.72;;;25.00;91.40;;;;;;936492;148;27397;-81
2022/10/18 11:29:00;;;;;;;1.55;1.45;;;24.90;91.60;;;;;;903577;155;27521;-81
2022/10/18 11:31:57;;;;;;;3.85;1.70;;;25.00;91.80;;;;;;922211;151;27473;-81
2022/10/18 11:34:29;;;;;;;1.57;1.47;;;25.00;91.80;;;;;;935441;148;27418;-81
2022/10/18 11:37:10;;;;;;;1.50;1.40;;;25.00;91.80;;;;;;935679;148;27910;-81
2022/10/18 11:39:49;;;;;;;2.30;1.20;;;25.00;91.40;;;;;;934675;151;27307;-81
2022/10/18 11:42:53;;;;;;;3.20;1.30;;;25.00;90.80;;;;;;931319;150;27451;-81
2022/10/18 11:45:25;;;;;;;5.50;1.40;;;25.00;90.40;;;;;;931034;152;27316;-80
2022/10/18 11:48:26;;;;;;;1.80;1.10;;;24.90;90.80;;;;;;931003;152;27524;-80
2022/10/18 11:51:10;;;;;;;1.42;1.10;;;24.80;90.80;;;;;;930377;152;27438;-80
2022/10/18 11:53:43;;;;;;;1.17;1.10;;;24.70;90.80;;;;;;931230;152;27380;-81
2022/10/18 11:56:18;;;;;;;1.40;1.30;;;24.60;90.90;;;;;;928492;152;27360;-81
2022/10/18 11:58:50;;;;;;;1.90;1.55;;;24.40;91.00;;;;;;931576;151;27368;-81
2022/10/18 12:01:17;;;;;;;1.30;1.20;;;24.20;91.30;;;;;;929399;151;27372;-81
2022/10/18 12:03:58;;;;;;;4.45;1.50;;;24.00;91.80;;;;;;929967;150;27428;-81
2022/10/18 12:06:25;;;;;;;1.75;1.65;;;23.90;92.50;;;;;;930758;150;27306;-81
2022/10/18 12:08:54;;;;;;;1.62;1.45;;;23.70;93.10;;;;;;930670;152;27344;-81
2022/10/18 12:11:21;;;;;;;1.70;1.60;;;23.60;93.90;;;;;;930110;152;27401;-81
2022/10/18 12:13:53;;;;;;;1.57;1.37;;;23.40;94.50;;;;;;931066;152;27352;-81
2022/10/18 12:16:19;;;;;;;1.40;1.30;;;23.40;94.90;;;;;;932039;150;27279;-80
2022/10/18 12:18:55;;;;;;;1.40;1.30;;;23.30;95.20;;;;;;931478;152;27686;-80
2022/10/18 12:21:22;;;;;;;1.05;0.98;;;23.30;95.30;;;;;;930777;151;27438;-80
2022/10/18 12:24:01;;;;;;;1.07;1.07;;;23.20;95.30;;;;;;931154;152;27317;-81
2022/10/18 12:26:27;;;;;;;1.40;1.30;;;23.10;95.50;;;;;;929344;150;27500;-81
2022/10/18 12:29:12;;;;;;;1.42;1.17;;;23.10;95.60;;;;;;931453;150;27430;-81
2022/10/18 12:31:48;;;;;;;0.88;0.88;;;23.10;95.60;;;;;;932083;150;27449;-80
2022/10/18 12:34:21;;;;;;;2.35;0.95;;;23.00;95.80;;;;;;930434;150;27764;-80
2022/10/18 12:37:05;;;;;;;1.02;1.00;;;23.00;96.10;;;;;;930399;152;27278;-80
2022/10/18 12:39:41;;;;;;;1.12;1.02;;;23.00;96.70;;;;;;931759;150;27360;-80
2022/10/18 12:42:17;;;;;;;2.92;1.20;;;22.90;96.90;;;;;;932479;151;27414;-80
2022/10/18 12:44:43;;;;;;;0.95;0.90;;;22.90;97.20;;;;;;935482;150;27358;-80
2022/10/18 12:47:10;;;;;;;1.22;1.12;;;22.90;97.20;;;;;;935241;151;27410;-80
2022/10/18 12:49:36;;;;;;;0.90;0.90;;;22.90;97.30;;;;;;937278;151;27308;-80
2022/10/18 12:52:06;;;;;;;1.32;1.05;;;22.90;97.20;;;;;;937074;151;27397;-81
2022/10/18 12:54:33;;;;;;;1.22;1.10;;;22.90;97.40;;;;;;932518;151;27380;-80
2022/10/18 12:56:59;;;;;;;1.15;1.10;;;22.90;97.60;;;;;;934600;151;27314;-80